HI511EM MDCR-MDPC
Flight info
| Callsign | HI511EM |
|---|---|
| Flight time | 1h 5m |
| Altitude | 13000 |
| Route | DCT DCR B520 KANAM W3 CDO DCT KENKO DCT |
| Aircraft | K100/L-SBDGRY/S |
Departure
| Time | 2026-04-29 12:48 |
|---|---|
| Airport | Cabo Rojo Airport (MDCR) |
Arrival
| Time | 2026-04-29 13:53 |
|---|---|
| Airport | Punta Cana International Airport (MDPC) |
| Time | Latitude | Longitude | Altitude | Speed | Heading |
|---|---|---|---|---|---|
| 2026-04-29 12:39 | 17.93158 | -71.65051 | -27 ft | 0 kts | 204° |
| 2026-04-29 12:45 | 17.93148 | -71.65051 | -27 ft | 4 kts | 147° |
| 2026-04-29 12:46 | 17.93108 | -71.65037 | -26 ft | 8 kts | 180° |
| 2026-04-29 12:46 | 17.93084 | -71.65023 | -27 ft | 0 kts | 104° |
| 2026-04-29 12:46 | 17.93084 | -71.65021 | -27 ft | 5 kts | 104° |
| 2026-04-29 12:47 | 17.93003 | -71.64784 | -20 ft | 63 kts | 109° |
| 2026-04-29 12:47 | 17.92908 | -71.64311 | 138 ft | 62 kts | 91° |
| 2026-04-29 12:47 | 17.92883 | -71.63846 | 172 ft | 71 kts | 70° |
| 2026-04-29 12:47 | 17.93010 | -71.63291 | 400 ft | 83 kts | 73° |
| 2026-04-29 12:48 | 17.93169 | -71.62660 | 758 ft | 95 kts | 70° |
| 2026-04-29 12:48 | 17.93422 | -71.61969 | 1081 ft | 108 kts | 64° |
| 2026-04-29 12:48 | 17.93630 | -71.61165 | 1301 ft | 129 kts | 92° |
| 2026-04-29 12:48 | 17.93456 | -71.60201 | 1515 ft | 141 kts | 101° |
| 2026-04-29 12:49 | 17.93221 | -71.59166 | 1655 ft | 150 kts | 102° |
| 2026-04-29 12:49 | 17.92975 | -71.58119 | 1974 ft | 148 kts | 102° |
| 2026-04-29 12:49 | 17.92730 | -71.57009 | 1994 ft | 163 kts | 103° |
| 2026-04-29 12:49 | 17.92482 | -71.55870 | 2274 ft | 150 kts | 101° |
| 2026-04-29 12:50 | 17.92236 | -71.54868 | 2721 ft | 138 kts | 103° |
| 2026-04-29 12:50 | 17.91980 | -71.53893 | 3001 ft | 139 kts | 103° |
| 2026-04-29 12:50 | 17.91723 | -71.52911 | 3272 ft | 140 kts | 103° |
| 2026-04-29 12:50 | 17.91468 | -71.51927 | 3556 ft | 140 kts | 102° |
| 2026-04-29 12:51 | 17.91553 | -71.50936 | 3817 ft | 139 kts | 71° |
| 2026-04-29 12:51 | 17.91849 | -71.49967 | 4106 ft | 140 kts | 75° |
| 2026-04-29 12:51 | 17.92099 | -71.48973 | 4427 ft | 141 kts | 77° |
| 2026-04-29 12:51 | 17.92322 | -71.47971 | 4765 ft | 141 kts | 78° |
| 2026-04-29 12:52 | 17.92537 | -71.46965 | 5056 ft | 142 kts | 79° |
| 2026-04-29 12:52 | 17.92754 | -71.45944 | 5279 ft | 144 kts | 79° |
| 2026-04-29 12:52 | 17.92969 | -71.44914 | 5503 ft | 145 kts | 78° |
| 2026-04-29 12:52 | 17.93189 | -71.43870 | 5734 ft | 147 kts | 78° |
| 2026-04-29 12:53 | 17.93407 | -71.42824 | 5998 ft | 147 kts | 79° |
| 2026-04-29 12:53 | 17.93626 | -71.41782 | 6236 ft | 148 kts | 79° |
| 2026-04-29 12:53 | 17.93847 | -71.40727 | 6470 ft | 149 kts | 79° |
| 2026-04-29 12:53 | 17.94070 | -71.39664 | 6714 ft | 150 kts | 79° |
| 2026-04-29 12:54 | 17.94297 | -71.38585 | 6912 ft | 151 kts | 79° |
| 2026-04-29 12:54 | 17.94522 | -71.37507 | 7114 ft | 152 kts | 80° |
| 2026-04-29 12:54 | 17.94748 | -71.36424 | 7337 ft | 152 kts | 79° |
| 2026-04-29 12:54 | 17.94978 | -71.35332 | 7543 ft | 153 kts | 80° |
| 2026-04-29 12:55 | 17.95207 | -71.34230 | 7736 ft | 156 kts | 79° |
| 2026-04-29 12:55 | 17.95441 | -71.33116 | 7929 ft | 155 kts | 81° |
| 2026-04-29 12:55 | 17.95674 | -71.32007 | 8113 ft | 156 kts | 81° |
| 2026-04-29 12:55 | 17.95908 | -71.30892 | 8268 ft | 158 kts | 80° |
| 2026-04-29 12:56 | 17.96143 | -71.29764 | 8457 ft | 159 kts | 79° |
| 2026-04-29 12:56 | 17.96381 | -71.28622 | 8609 ft | 161 kts | 81° |
| 2026-04-29 12:56 | 17.96619 | -71.27473 | 8793 ft | 161 kts | 81° |
| 2026-04-29 12:56 | 17.96862 | -71.26321 | 8956 ft | 162 kts | 80° |
| 2026-04-29 12:57 | 17.97104 | -71.25162 | 9105 ft | 163 kts | 80° |
| 2026-04-29 12:57 | 17.97348 | -71.23995 | 9241 ft | 164 kts | 80° |
| 2026-04-29 12:57 | 17.97594 | -71.22819 | 9393 ft | 165 kts | 81° |
| 2026-04-29 12:57 | 17.97839 | -71.21633 | 9542 ft | 166 kts | 79° |
| 2026-04-29 12:58 | 17.98089 | -71.20443 | 9698 ft | 167 kts | 81° |
| 2026-04-29 12:58 | 17.98340 | -71.19246 | 9816 ft | 168 kts | 80° |
| 2026-04-29 12:58 | 17.98591 | -71.18042 | 9918 ft | 169 kts | 79° |
| 2026-04-29 12:58 | 17.98841 | -71.16851 | 10042 ft | 169 kts | 82° |
| 2026-04-29 12:59 | 17.99088 | -71.15641 | 10175 ft | 170 kts | 81° |
| 2026-04-29 12:59 | 17.99340 | -71.14430 | 10278 ft | 170 kts | 80° |
| 2026-04-29 12:59 | 17.99594 | -71.13218 | 10389 ft | 170 kts | 81° |
| 2026-04-29 12:59 | 17.99849 | -71.11997 | 10488 ft | 171 kts | 81° |
| 2026-04-29 13:00 | 18.00102 | -71.10773 | 10586 ft | 172 kts | 80° |
| 2026-04-29 13:00 | 18.00356 | -71.09550 | 10691 ft | 171 kts | 79° |
| 2026-04-29 13:00 | 18.00612 | -71.08327 | 10783 ft | 172 kts | 80° |
| 2026-04-29 13:00 | 18.00866 | -71.07098 | 10874 ft | 172 kts | 82° |
| 2026-04-29 13:01 | 18.01123 | -71.05865 | 10966 ft | 173 kts | 81° |
| 2026-04-29 13:01 | 18.01380 | -71.04632 | 11064 ft | 173 kts | 79° |
| 2026-04-29 13:01 | 18.01634 | -71.03397 | 11163 ft | 173 kts | 80° |
| 2026-04-29 13:01 | 18.01890 | -71.02174 | 11244 ft | 174 kts | 82° |
| 2026-04-29 13:02 | 18.02147 | -71.00933 | 11332 ft | 175 kts | 81° |
| 2026-04-29 13:02 | 18.02402 | -70.99688 | 11432 ft | 174 kts | 80° |
| 2026-04-29 13:02 | 18.02662 | -70.98444 | 11514 ft | 174 kts | 81° |
| 2026-04-29 13:02 | 18.02921 | -70.97198 | 11594 ft | 175 kts | 81° |
| 2026-04-29 13:03 | 18.03179 | -70.95947 | 11670 ft | 176 kts | 81° |
| 2026-04-29 13:03 | 18.03439 | -70.94694 | 11755 ft | 175 kts | 80° |
| 2026-04-29 13:03 | 18.03698 | -70.93439 | 11823 ft | 175 kts | 79° |
| 2026-04-29 13:03 | 18.03959 | -70.92186 | 11901 ft | 176 kts | 81° |
| 2026-04-29 13:04 | 18.04218 | -70.90929 | 11972 ft | 176 kts | 80° |
| 2026-04-29 13:04 | 18.04479 | -70.89668 | 12048 ft | 176 kts | 79° |
| 2026-04-29 13:04 | 18.04739 | -70.88409 | 12119 ft | 177 kts | 79° |
| 2026-04-29 13:04 | 18.05000 | -70.87147 | 12190 ft | 177 kts | 81° |
| 2026-04-29 13:05 | 18.05264 | -70.85884 | 12258 ft | 178 kts | 81° |
| 2026-04-29 13:05 | 18.05528 | -70.84610 | 12311 ft | 178 kts | 80° |
| 2026-04-29 13:05 | 18.05787 | -70.83339 | 12387 ft | 178 kts | 80° |
| 2026-04-29 13:05 | 18.06046 | -70.82086 | 12458 ft | 178 kts | 81° |
| 2026-04-29 13:06 | 18.06309 | -70.80813 | 12508 ft | 179 kts | 80° |
| 2026-04-29 13:06 | 18.06572 | -70.79536 | 12572 ft | 179 kts | 82° |
| 2026-04-29 13:06 | 18.06832 | -70.78259 | 12642 ft | 178 kts | 79° |
| 2026-04-29 13:06 | 18.07095 | -70.76987 | 12711 ft | 178 kts | 80° |
| 2026-04-29 13:07 | 18.07361 | -70.75710 | 12756 ft | 179 kts | 81° |
| 2026-04-29 13:07 | 18.07625 | -70.74428 | 12807 ft | 180 kts | 80° |
| 2026-04-29 13:07 | 18.07888 | -70.73146 | 12866 ft | 179 kts | 81° |
| 2026-04-29 13:07 | 18.08151 | -70.71869 | 12924 ft | 179 kts | 81° |
| 2026-04-29 13:08 | 18.08416 | -70.70584 | 12987 ft | 179 kts | 81° |
| 2026-04-29 13:08 | 18.08679 | -70.69289 | 12997 ft | 183 kts | 81° |
| 2026-04-29 13:08 | 18.08948 | -70.67973 | 13002 ft | 185 kts | 79° |
| 2026-04-29 13:08 | 18.09223 | -70.66649 | 13003 ft | 186 kts | 79° |
| 2026-04-29 13:09 | 18.09498 | -70.65321 | 12996 ft | 186 kts | 80° |
| 2026-04-29 13:09 | 18.09773 | -70.63988 | 12996 ft | 187 kts | 80° |
| 2026-04-29 13:09 | 18.10045 | -70.62650 | 12998 ft | 187 kts | 81° |
| 2026-04-29 13:09 | 18.10320 | -70.61311 | 13000 ft | 188 kts | 80° |
| 2026-04-29 13:10 | 18.10594 | -70.59966 | 13000 ft | 188 kts | 82° |
| 2026-04-29 13:10 | 18.10870 | -70.58622 | 13004 ft | 188 kts | 79° |
| 2026-04-29 13:10 | 18.11145 | -70.57293 | 13005 ft | 188 kts | 79° |
| 2026-04-29 13:10 | 18.11421 | -70.55946 | 13006 ft | 189 kts | 79° |
| 2026-04-29 13:11 | 18.11698 | -70.54593 | 13009 ft | 189 kts | 79° |
| 2026-04-29 13:11 | 18.11975 | -70.53242 | 13003 ft | 189 kts | 79° |
| 2026-04-29 13:11 | 18.12251 | -70.51888 | 13008 ft | 190 kts | 79° |
| 2026-04-29 13:11 | 18.12529 | -70.50529 | 13009 ft | 190 kts | 79° |
| 2026-04-29 13:12 | 18.12808 | -70.49167 | 13006 ft | 190 kts | 79° |
| 2026-04-29 13:12 | 18.13160 | -70.47823 | 13000 ft | 191 kts | 70° |
| 2026-04-29 13:12 | 18.13658 | -70.46527 | 13009 ft | 191 kts | 69° |
| 2026-04-29 13:12 | 18.14147 | -70.45228 | 13009 ft | 191 kts | 70° |
| 2026-04-29 13:13 | 18.14627 | -70.43942 | 12999 ft | 191 kts | 70° |
| 2026-04-29 13:13 | 18.15114 | -70.42640 | 13002 ft | 192 kts | 70° |
| 2026-04-29 13:13 | 18.15601 | -70.41336 | 13009 ft | 192 kts | 70° |
| 2026-04-29 13:13 | 18.15930 | -70.40456 | 13009 ft | 192 kts | 69° |
| 2026-04-29 13:14 | 18.16577 | -70.38726 | 13010 ft | 192 kts | 70° |
| 2026-04-29 13:14 | 18.17065 | -70.37418 | 13012 ft | 192 kts | 69° |
| 2026-04-29 13:14 | 18.17555 | -70.36106 | 13011 ft | 193 kts | 70° |
| 2026-04-29 13:14 | 18.17887 | -70.35219 | 13013 ft | 193 kts | 70° |
| 2026-04-29 13:15 | 18.18370 | -70.33926 | 13008 ft | 193 kts | 70° |
| 2026-04-29 13:15 | 18.18859 | -70.32613 | 13010 ft | 193 kts | 69° |
| 2026-04-29 13:15 | 18.19355 | -70.31283 | 13014 ft | 193 kts | 70° |
| 2026-04-29 13:15 | 18.19839 | -70.29987 | 13009 ft | 193 kts | 70° |
| 2026-04-29 13:16 | 18.20329 | -70.28676 | 13008 ft | 193 kts | 69° |
| 2026-04-29 13:16 | 18.20817 | -70.27364 | 13011 ft | 193 kts | 70° |
| 2026-04-29 13:16 | 18.21306 | -70.26052 | 13006 ft | 192 kts | 69° |
| 2026-04-29 13:16 | 18.21796 | -70.24740 | 13008 ft | 193 kts | 70° |
| 2026-04-29 13:17 | 18.22286 | -70.23427 | 13010 ft | 193 kts | 70° |
| 2026-04-29 13:17 | 18.22774 | -70.22113 | 13010 ft | 193 kts | 70° |
| 2026-04-29 13:17 | 18.23263 | -70.20801 | 13013 ft | 193 kts | 70° |
| 2026-04-29 13:17 | 18.23753 | -70.19487 | 13010 ft | 193 kts | 70° |
| 2026-04-29 13:18 | 18.24245 | -70.18164 | 13005 ft | 195 kts | 69° |
| 2026-04-29 13:18 | 18.24739 | -70.16837 | 13014 ft | 195 kts | 70° |
| 2026-04-29 13:18 | 18.25235 | -70.15504 | 13009 ft | 196 kts | 70° |
| 2026-04-29 13:18 | 18.25735 | -70.14163 | 13015 ft | 197 kts | 70° |
| 2026-04-29 13:19 | 18.26231 | -70.12825 | 13010 ft | 196 kts | 70° |
| 2026-04-29 13:19 | 18.26729 | -70.11494 | 13016 ft | 195 kts | 69° |
| 2026-04-29 13:19 | 18.27229 | -70.10165 | 13012 ft | 195 kts | 70° |
| 2026-04-29 13:19 | 18.27726 | -70.08832 | 13011 ft | 195 kts | 69° |
| 2026-04-29 13:20 | 18.28224 | -70.07504 | 13020 ft | 195 kts | 70° |
| 2026-04-29 13:20 | 18.28714 | -70.06193 | 13025 ft | 195 kts | 70° |
| 2026-04-29 13:20 | 18.29212 | -70.04862 | 13023 ft | 195 kts | 70° |
| 2026-04-29 13:20 | 18.29707 | -70.03534 | 13028 ft | 195 kts | 69° |
| 2026-04-29 13:21 | 18.30204 | -70.02207 | 13025 ft | 195 kts | 69° |
| 2026-04-29 13:21 | 18.30702 | -70.00879 | 13029 ft | 195 kts | 70° |
| 2026-04-29 13:21 | 18.31197 | -69.99550 | 13026 ft | 195 kts | 70° |
| 2026-04-29 13:21 | 18.31692 | -69.98225 | 13032 ft | 194 kts | 70° |
| 2026-04-29 13:22 | 18.32185 | -69.96902 | 13030 ft | 195 kts | 70° |
| 2026-04-29 13:22 | 18.32682 | -69.95574 | 13027 ft | 195 kts | 69° |
| 2026-04-29 13:22 | 18.33177 | -69.94249 | 13028 ft | 195 kts | 70° |
| 2026-04-29 13:22 | 18.33671 | -69.92919 | 13028 ft | 195 kts | 69° |
| 2026-04-29 13:23 | 18.34167 | -69.91590 | 13032 ft | 195 kts | 70° |
| 2026-04-29 13:23 | 18.34664 | -69.90257 | 13024 ft | 195 kts | 70° |
| 2026-04-29 13:23 | 18.35160 | -69.88930 | 13022 ft | 195 kts | 69° |
| 2026-04-29 13:23 | 18.35653 | -69.87605 | 13022 ft | 195 kts | 70° |
| 2026-04-29 13:24 | 18.36150 | -69.86276 | 13020 ft | 195 kts | 69° |
| 2026-04-29 13:24 | 18.36644 | -69.84946 | 13022 ft | 195 kts | 69° |
| 2026-04-29 13:24 | 18.37137 | -69.83622 | 13026 ft | 194 kts | 69° |
| 2026-04-29 13:24 | 18.37624 | -69.82315 | 13023 ft | 195 kts | 69° |
| 2026-04-29 13:25 | 18.38119 | -69.80986 | 13019 ft | 195 kts | 70° |
| 2026-04-29 13:25 | 18.39108 | -69.78328 | 13026 ft | 195 kts | 69° |
| 2026-04-29 13:25 | 18.39604 | -69.76996 | 13022 ft | 195 kts | 69° |
| 2026-04-29 13:26 | 18.40099 | -69.75664 | 13027 ft | 195 kts | 69° |
| 2026-04-29 13:26 | 18.40594 | -69.74333 | 13029 ft | 195 kts | 69° |
| 2026-04-29 13:26 | 18.41087 | -69.73005 | 13025 ft | 195 kts | 69° |
| 2026-04-29 13:26 | 18.41582 | -69.71674 | 13027 ft | 195 kts | 70° |
| 2026-04-29 13:27 | 18.42076 | -69.70343 | 13030 ft | 195 kts | 69° |
| 2026-04-29 13:27 | 18.42569 | -69.69015 | 13026 ft | 195 kts | 69° |
| 2026-04-29 13:27 | 18.43056 | -69.67703 | 13031 ft | 195 kts | 69° |
| 2026-04-29 13:27 | 18.43468 | -69.66347 | 13031 ft | 194 kts | 83° |
| 2026-04-29 13:28 | 18.43607 | -69.64936 | 13033 ft | 194 kts | 85° |
| 2026-04-29 13:28 | 18.43764 | -69.63524 | 13035 ft | 195 kts | 84° |
| 2026-04-29 13:28 | 18.43923 | -69.62105 | 13030 ft | 195 kts | 84° |
| 2026-04-29 13:28 | 18.44078 | -69.60688 | 13032 ft | 195 kts | 84° |
| 2026-04-29 13:29 | 18.44232 | -69.59271 | 13036 ft | 194 kts | 84° |
| 2026-04-29 13:29 | 18.44386 | -69.57857 | 13032 ft | 195 kts | 85° |
| 2026-04-29 13:29 | 18.44540 | -69.56442 | 13031 ft | 195 kts | 85° |
| 2026-04-29 13:29 | 18.44694 | -69.55021 | 13032 ft | 196 kts | 84° |
| 2026-04-29 13:30 | 18.44849 | -69.53600 | 13029 ft | 195 kts | 84° |
| 2026-04-29 13:30 | 18.45004 | -69.52181 | 13025 ft | 195 kts | 85° |
| 2026-04-29 13:30 | 18.45158 | -69.50760 | 13030 ft | 195 kts | 85° |
| 2026-04-29 13:30 | 18.45312 | -69.49340 | 13033 ft | 196 kts | 85° |
| 2026-04-29 13:31 | 18.45467 | -69.47914 | 13034 ft | 196 kts | 84° |
| 2026-04-29 13:31 | 18.45622 | -69.46480 | 13034 ft | 197 kts | 84° |
| 2026-04-29 13:31 | 18.45775 | -69.45061 | 13031 ft | 197 kts | 85° |
| 2026-04-29 13:31 | 18.45931 | -69.43624 | 13032 ft | 196 kts | 85° |
| 2026-04-29 13:32 | 18.46088 | -69.42194 | 13033 ft | 196 kts | 85° |
| 2026-04-29 13:32 | 18.46241 | -69.40772 | 13035 ft | 196 kts | 84° |
| 2026-04-29 13:32 | 18.46394 | -69.39346 | 13032 ft | 196 kts | 85° |
| 2026-04-29 13:32 | 18.46548 | -69.37917 | 13032 ft | 197 kts | 85° |
| 2026-04-29 13:33 | 18.46703 | -69.36486 | 13027 ft | 196 kts | 84° |
| 2026-04-29 13:33 | 18.46856 | -69.35068 | 13026 ft | 195 kts | 85° |
| 2026-04-29 13:33 | 18.47009 | -69.33650 | 13028 ft | 195 kts | 85° |
| 2026-04-29 13:33 | 18.47161 | -69.32229 | 13027 ft | 195 kts | 85° |
| 2026-04-29 13:34 | 18.47314 | -69.30804 | 13026 ft | 196 kts | 84° |
| 2026-04-29 13:34 | 18.47468 | -69.29383 | 13028 ft | 196 kts | 85° |
| 2026-04-29 13:34 | 18.47621 | -69.27957 | 13028 ft | 196 kts | 85° |
| 2026-04-29 13:34 | 18.47774 | -69.26530 | 13028 ft | 196 kts | 84° |
| 2026-04-29 13:35 | 18.47927 | -69.25101 | 13029 ft | 196 kts | 84° |
| 2026-04-29 13:35 | 18.48081 | -69.23677 | 13032 ft | 195 kts | 85° |
| 2026-04-29 13:35 | 18.48233 | -69.22252 | 13035 ft | 196 kts | 85° |
| 2026-04-29 13:35 | 18.48385 | -69.20830 | 13018 ft | 196 kts | 84° |
| 2026-04-29 13:36 | 18.48537 | -69.19405 | 13033 ft | 196 kts | 85° |
| 2026-04-29 13:36 | 18.48688 | -69.17995 | 13024 ft | 196 kts | 85° |
| 2026-04-29 13:36 | 18.48841 | -69.16565 | 13029 ft | 196 kts | 86° |
| 2026-04-29 13:36 | 18.48993 | -69.15134 | 13029 ft | 196 kts | 86° |
| 2026-04-29 13:37 | 18.49146 | -69.13705 | 13033 ft | 197 kts | 85° |
| 2026-04-29 13:37 | 18.49298 | -69.12270 | 13032 ft | 197 kts | 85° |
| 2026-04-29 13:37 | 18.49452 | -69.10837 | 13028 ft | 196 kts | 85° |
| 2026-04-29 13:37 | 18.49604 | -69.09413 | 13031 ft | 196 kts | 85° |
| 2026-04-29 13:38 | 18.49754 | -69.07986 | 13027 ft | 196 kts | 86° |
| 2026-04-29 13:38 | 18.49906 | -69.06557 | 13031 ft | 196 kts | 85° |
| 2026-04-29 13:38 | 18.50058 | -69.05126 | 12939 ft | 196 kts | 84° |
| 2026-04-29 13:38 | 18.50210 | -69.03704 | 12786 ft | 194 kts | 85° |
| 2026-04-29 13:39 | 18.50360 | -69.02290 | 12633 ft | 193 kts | 86° |
| 2026-04-29 13:39 | 18.50509 | -69.00885 | 12460 ft | 193 kts | 85° |
| 2026-04-29 13:39 | 18.50658 | -68.99460 | 12195 ft | 198 kts | 84° |
| 2026-04-29 13:39 | 18.50811 | -68.98009 | 11904 ft | 201 kts | 85° |
| 2026-04-29 13:40 | 18.50966 | -68.96550 | 11618 ft | 200 kts | 85° |
| 2026-04-29 13:40 | 18.51117 | -68.95112 | 11324 ft | 199 kts | 84° |
| 2026-04-29 13:40 | 18.51272 | -68.93665 | 11047 ft | 198 kts | 84° |
| 2026-04-29 13:40 | 18.51425 | -68.92223 | 10769 ft | 198 kts | 85° |
| 2026-04-29 13:41 | 18.51577 | -68.90781 | 10486 ft | 197 kts | 84° |
| 2026-04-29 13:41 | 18.51728 | -68.89343 | 10213 ft | 197 kts | 84° |
| 2026-04-29 13:41 | 18.51875 | -68.87910 | 9937 ft | 196 kts | 84° |
| 2026-04-29 13:41 | 18.52020 | -68.86482 | 9637 ft | 196 kts | 84° |
| 2026-04-29 13:42 | 18.52166 | -68.85061 | 9329 ft | 194 kts | 84° |
| 2026-04-29 13:42 | 18.52310 | -68.83653 | 9030 ft | 192 kts | 84° |
| 2026-04-29 13:42 | 18.52452 | -68.82263 | 8734 ft | 190 kts | 84° |
| 2026-04-29 13:42 | 18.52593 | -68.80886 | 8439 ft | 188 kts | 84° |
| 2026-04-29 13:43 | 18.52731 | -68.79540 | 8150 ft | 186 kts | 84° |
| 2026-04-29 13:43 | 18.52869 | -68.78191 | 7860 ft | 184 kts | 83° |
| 2026-04-29 13:43 | 18.53006 | -68.76858 | 7573 ft | 180 kts | 84° |
| 2026-04-29 13:43 | 18.53135 | -68.75582 | 7277 ft | 171 kts | 83° |
| 2026-04-29 13:44 | 18.53262 | -68.74356 | 6934 ft | 164 kts | 83° |
| 2026-04-29 13:44 | 18.53381 | -68.73190 | 6560 ft | 157 kts | 83° |
| 2026-04-29 13:44 | 18.53496 | -68.72060 | 6169 ft | 154 kts | 83° |
| 2026-04-29 13:44 | 18.53610 | -68.70953 | 5776 ft | 151 kts | 83° |
| 2026-04-29 13:45 | 18.53720 | -68.69864 | 5382 ft | 148 kts | 83° |
| 2026-04-29 13:45 | 18.53829 | -68.68789 | 5006 ft | 147 kts | 82° |
| 2026-04-29 13:45 | 18.53938 | -68.67725 | 4610 ft | 144 kts | 83° |
| 2026-04-29 13:45 | 18.54046 | -68.66673 | 4212 ft | 145 kts | 82° |
| 2026-04-29 13:46 | 18.54153 | -68.65622 | 3827 ft | 143 kts | 82° |
| 2026-04-29 13:46 | 18.54260 | -68.64569 | 3449 ft | 145 kts | 82° |
| 2026-04-29 13:46 | 18.54367 | -68.63510 | 3064 ft | 145 kts | 82° |
| 2026-04-29 13:46 | 18.54473 | -68.62457 | 2682 ft | 146 kts | 82° |
| 2026-04-29 13:47 | 18.54582 | -68.61401 | 2293 ft | 148 kts | 82° |
| 2026-04-29 13:47 | 18.54692 | -68.60330 | 2019 ft | 142 kts | 82° |
| 2026-04-29 13:47 | 18.54795 | -68.59320 | 1835 ft | 135 kts | 81° |
| 2026-04-29 13:47 | 18.54893 | -68.58346 | 1731 ft | 129 kts | 82° |
| 2026-04-29 13:48 | 18.54983 | -68.57440 | 1730 ft | 122 kts | 80° |
| 2026-04-29 13:48 | 18.55074 | -68.56566 | 1733 ft | 123 kts | 81° |
| 2026-04-29 13:48 | 18.55173 | -68.55584 | 1752 ft | 146 kts | 82° |
| 2026-04-29 13:48 | 18.55279 | -68.54472 | 1730 ft | 154 kts | 82° |
| 2026-04-29 13:49 | 18.55393 | -68.53353 | 1729 ft | 154 kts | 82° |
| 2026-04-29 13:49 | 18.55505 | -68.52225 | 1744 ft | 156 kts | 83° |
| 2026-04-29 13:49 | 18.55624 | -68.51084 | 1732 ft | 156 kts | 83° |
| 2026-04-29 13:49 | 18.55745 | -68.49953 | 1706 ft | 155 kts | 82° |
| 2026-04-29 13:50 | 18.55889 | -68.48839 | 1627 ft | 151 kts | 80° |
| 2026-04-29 13:50 | 18.56055 | -68.47768 | 1640 ft | 145 kts | 81° |
| 2026-04-29 13:50 | 18.56184 | -68.46733 | 1618 ft | 140 kts | 80° |
| 2026-04-29 13:50 | 18.56236 | -68.45745 | 1610 ft | 130 kts | 92° |
| 2026-04-29 13:51 | 18.56177 | -68.44828 | 1528 ft | 125 kts | 91° |
| 2026-04-29 13:51 | 18.56138 | -68.43920 | 1365 ft | 121 kts | 90° |
| 2026-04-29 13:51 | 18.56112 | -68.43058 | 1141 ft | 114 kts | 89° |
| 2026-04-29 13:51 | 18.56168 | -68.42239 | 947 ft | 107 kts | 84° |
| 2026-04-29 13:52 | 18.56271 | -68.41522 | 796 ft | 94 kts | 80° |
| 2026-04-29 13:52 | 18.56379 | -68.40820 | 722 ft | 103 kts | 77° |
| 2026-04-29 13:52 | 18.56522 | -68.40066 | 508 ft | 105 kts | 73° |
| 2026-04-29 13:52 | 18.56728 | -68.39362 | 363 ft | 100 kts | 74° |
| 2026-04-29 13:53 | 18.56923 | -68.38687 | 216 ft | 93 kts | 76° |
| 2026-04-29 13:53 | 18.57088 | -68.38081 | 70 ft | 73 kts | 72° |
| 2026-04-29 13:53 | 18.57201 | -68.37682 | 46 ft | 46 kts | 73° |
| 2026-04-29 13:53 | 18.57294 | -68.37343 | 47 ft | 51 kts | 75° |
| 2026-04-29 13:54 | 18.57396 | -68.36972 | 45 ft | 53 kts | 73° |
| 2026-04-29 13:54 | 18.57490 | -68.36630 | 45 ft | 43 kts | 73° |
| 2026-04-29 13:54 | 18.57571 | -68.36349 | 44 ft | 38 kts | 75° |
| 2026-04-29 13:54 | 18.57600 | -68.36085 | 47 ft | 35 kts | 96° |
| 2026-04-29 13:55 | 18.57503 | -68.35862 | 47 ft | 35 kts | 150° |
| 2026-04-29 13:55 | 18.57256 | -68.35823 | 47 ft | 38 kts | 176° |
| 2026-04-29 13:55 | 18.57012 | -68.35811 | 46 ft | 27 kts | 176° |
| 2026-04-29 13:55 | 18.56857 | -68.35798 | 45 ft | 24 kts | 177° |
| 2026-04-29 13:56 | 18.56711 | -68.35787 | 45 ft | 17 kts | 171° |
| 2026-04-29 13:56 | 18.56589 | -68.35777 | 46 ft | 18 kts | 177° |
| 2026-04-29 13:56 | 18.56473 | -68.35779 | 47 ft | 15 kts | 172° |
| 2026-04-29 13:56 | 18.56423 | -68.35776 | 47 ft | 0 kts | 174° |